Terminal Aerodrome Forecast
Issued by NWS Jackson, MS

Home | Current Version | Previous Version | Text Only | Print | Product List | Glossary On
Versions: 1 2 3 4 5 6 7 8 9 10 11 12 13
000
FTUS44 KJAN 300547 RRA
TAFMEI
TAF
KMEI 300547Z 3006/3106 VRB03KT P6SM SCT250
     FM301100 VRB03KT 5SM BR FEW250
     FM301330 35006KT P6SM FEW025 SCT040 SCT250
     FM310000 VRB03KT P6SM FEW050 SCT070 SCT250=

USA.gov is the U.S. government's official web portal to all federal, state and local government web resources and services.